Time;durP1;ratioP1;P1;durP2;ratioP2;P2;SDS_P1;SDS_P2;PMS_P1;PMS_P2;Temp;Humidity;BMP_temperature;BMP_pressure;BME280_temperature;BME280_humidity;BME280_pressure;Samples;Min_cycle;Max_cycle;Signal;HPM_P1;HPM_P2
2022/04/22 00:00:57;;;;;;;15.43;10.82;;;6.20;93.80;;;;;;5028778;28;20028;-67
2022/04/22 00:03:22;;;;;;;12.85;10.10;;;6.20;93.70;;;;;;5033983;28;20061;-68
2022/04/22 00:05:48;;;;;;;13.50;9.85;;;6.20;93.60;;;;;;5023067;28;20108;-67
2022/04/22 00:08:14;;;;;;;15.07;10.90;;;6.30;93.40;;;;;;5033895;28;20021;-67
2022/04/22 00:11:29;;;;;;;14.10;9.90;;;6.40;93.50;;;;;;5036102;28;20029;-66
2022/04/22 00:13:25;;;;;;;12.88;10.27;;;6.40;93.20;;;;;;5035633;28;20033;-67
2022/04/22 00:15:51;;;;;;;12.82;9.85;;;6.30;93.40;;;;;;5029686;28;20099;-66
2022/04/22 00:18:17;;;;;;;13.63;9.73;;;6.10;93.60;;;;;;5036049;28;20021;-66
2022/04/22 00:20:46;;;;;;;12.35;10.00;;;5.80;94.00;;;;;;5031375;28;20030;-69
2022/04/22 00:23:12;;;;;;;13.10;10.18;;;5.70;94.80;;;;;;5035495;28;20044;-69
2022/04/22 00:25:37;;;;;;;13.15;10.70;;;5.60;95.10;;;;;;5026368;28;20034;-68
2022/04/22 00:28:03;;;;;;;17.23;9.73;;;5.60;95.30;;;;;;5029382;28;20426;-67
2022/04/22 00:30:29;;;;;;;15.18;10.77;;;5.40;95.10;;;;;;5036465;28;20036;-68
2022/04/22 00:32:55;;;;;;;13.20;9.60;;;5.10;94.70;;;;;;5051885;28;20029;-66
2022/04/22 00:35:21;;;;;;;13.35;10.27;;;4.80;95.50;;;;;;5035126;28;20079;-67
2022/04/22 00:37:47;;;;;;;14.82;11.43;;;4.60;95.90;;;;;;5035375;28;20033;-66
2022/04/22 00:40:13;;;;;;;17.83;11.95;;;4.50;96.20;;;;;;5036803;28;20115;-67
2022/04/22 00:42:39;;;;;;;15.63;11.57;;;4.40;96.20;;;;;;5037782;28;20378;-67
2022/04/22 00:45:06;;;;;;;16.70;12.40;;;4.30;96.60;;;;;;5034545;28;20117;-68
2022/04/22 00:47:31;;;;;;;18.52;13.15;;;4.20;96.50;;;;;;5042991;28;20021;-68
2022/04/22 00:49:57;;;;;;;16.80;12.40;;;4.20;96.60;;;;;;5030089;28;20083;-68
2022/04/22 00:52:24;;;;;;;14.07;11.52;;;4.20;96.90;;;;;;5034777;28;20025;-68
2022/04/22 00:54:50;;;;;;;14.73;11.27;;;4.20;96.80;;;;;;5026427;28;20032;-67
2022/04/22 00:57:20;;;;;;;13.55;10.63;;;4.20;96.80;;;;;;5029303;28;20121;-68
2022/04/22 00:59:46;;;;;;;17.10;13.35;;;4.00;96.80;;;;;;5034683;28;20377;-67
2022/04/22 01:02:12;;;;;;;16.40;12.27;;;3.80;96.70;;;;;;5029173;28;20055;-68
2022/04/22 01:10:08;;;;;;;16.30;12.27;;;3.50;96.50;;;;;;5029946;28;19917;-68
2022/04/22 01:12:34;;;;;;;17.42;13.88;;;3.40;96.20;;;;;;5026441;28;20024;-68
2022/04/22 01:15:00;;;;;;;16.13;12.55;;;3.40;96.50;;;;;;5030009;28;20047;-68
2022/04/22 01:17:27;;;;;;;15.75;12.48;;;3.30;96.10;;;;;;5031210;28;20469;-68
2022/04/22 01:19:54;;;;;;;15.52;12.52;;;3.30;96.30;;;;;;5033775;28;20108;-69
2022/04/22 01:22:21;;;;;;;21.10;13.82;;;3.30;95.90;;;;;;5024278;28;20022;-68
2022/04/22 01:24:55;;;;;;;17.50;13.20;;;3.20;95.80;;;;;;5024462;28;20104;-69
2022/04/22 01:27:22;;;;;;;17.52;13.02;;;3.20;95.80;;;;;;5026345;28;20030;-67
2022/04/22 01:29:48;;;;;;;16.90;12.15;;;3.00;96.00;;;;;;5027951;28;20032;-68
2022/04/22 01:32:13;;;;;;;14.23;10.70;;;2.80;96.10;;;;;;5035442;28;20104;-69
2022/04/22 01:34:39;;;;;;;18.13;13.02;;;2.80;95.60;;;;;;5032781;28;20034;-68
2022/04/22 01:37:05;;;;;;;15.80;11.45;;;2.80;96.10;;;;;;5031487;28;20079;-68
2022/04/22 01:39:32;;;;;;;16.65;12.13;;;2.70;95.70;;;;;;5026598;28;20029;-68
2022/04/22 01:41:58;;;;;;;17.20;13.02;;;2.60;95.70;;;;;;5034105;28;20103;-68
2022/04/22 01:44:25;;;;;;;15.93;11.80;;;2.50;95.40;;;;;;5028323;28;20036;-68
2022/04/22 01:46:52;;;;;;;16.20;12.93;;;2.50;95.20;;;;;;5035355;28;20022;-68
2022/04/22 01:49:18;;;;;;;19.90;13.60;;;2.50;95.10;;;;;;5027813;28;20026;-67
2022/04/22 01:51:44;;;;;;;19.33;13.90;;;2.50;95.00;;;;;;5014721;28;20060;-68
2022/04/22 01:54:11;;;;;;;17.17;13.57;;;2.60;94.80;;;;;;5022525;28;20422;-69
2022/04/22 01:56:36;;;;;;;17.10;13.27;;;2.60;95.00;;;;;;5017509;28;20481;-67
2022/04/22 01:59:02;;;;;;;16.65;12.30;;;2.60;94.50;;;;;;5019004;28;20108;-68
2022/04/22 02:01:28;;;;;;;17.02;13.38;;;2.60;95.00;;;;;;5018356;28;20130;-67
2022/04/22 02:03:53;;;;;;;18.65;14.10;;;2.60;95.30;;;;;;5019293;28;20037;-68
2022/04/22 02:06:19;;;;;;;17.80;13.80;;;2.50;95.10;;;;;;5014545;28;20109;-68
2022/04/22 02:08:45;;;;;;;20.20;15.30;;;2.40;94.50;;;;;;5012138;28;20026;-66
2022/04/22 02:11:11;;;;;;;18.02;13.80;;;2.40;94.60;;;;;;5017878;28;20035;-68
2022/04/22 02:13:36;;;;;;;17.98;12.85;;;2.40;94.50;;;;;;5013901;28;20539;-68
2022/04/22 02:16:07;;;;;;;19.23;14.43;;;2.30;94.60;;;;;;5013325;28;20183;-68
2022/04/22 02:18:36;;;;;;;22.40;17.20;;;2.30;94.60;;;;;;5015309;28;20038;-68
2022/04/22 02:21:04;;;;;;;23.38;16.05;;;2.30;94.30;;;;;;5018571;28;20090;-68
2022/04/22 02:23:30;;;;;;;20.88;15.60;;;2.30;94.40;;;;;;5010593;28;20075;-69
2022/04/22 02:25:55;;;;;;;18.25;13.73;;;2.20;94.60;;;;;;5013532;28;20033;-67
2022/04/22 02:28:34;;;;;;;20.92;14.80;;;2.10;94.00;;;;;;5008110;28;20021;-68
2022/04/22 02:31:07;;;;;;;20.75;15.68;;;2.20;93.80;;;;;;5004307;28;20484;-67
2022/04/22 02:33:34;;;;;;;21.38;15.70;;;2.20;93.60;;;;;;5005997;28;20057;-68
2022/04/22 02:36:06;;;;;;;19.40;14.57;;;2.20;93.70;;;;;;5004956;28;20037;-68
2022/04/22 02:38:36;;;;;;;19.30;15.45;;;2.10;93.70;;;;;;5004015;28;20034;-68
2022/04/22 02:46:32;;;;;;;21.65;15.75;;;2.10;93.60;;;;;;5005760;28;20033;-68
2022/04/22 02:49:02;;;;;;;22.08;16.15;;;2.10;93.30;;;;;;5009973;28;20036;-68
2022/04/22 02:51:28;;;;;;;23.17;15.73;;;2.00;94.10;;;;;;5002854;28;20037;-68
2022/04/22 02:53:57;;;;;;;22.48;15.88;;;2.00;93.90;;;;;;5014468;28;20056;-68
2022/04/22 02:56:26;;;;;;;20.17;15.43;;;2.00;93.60;;;;;;5014162;28;20097;-68
2022/04/22 02:58:55;;;;;;;26.77;18.95;;;2.10;92.90;;;;;;5012751;28;20029;-68
2022/04/22 03:01:21;;;;;;;26.58;18.77;;;2.00;93.70;;;;;;5011791;28;20021;-68
2022/04/22 03:03:47;;;;;;;21.30;16.20;;;1.90;93.50;;;;;;5004315;28;20030;-68
2022/04/22 03:06:13;;;;;;;26.20;17.73;;;1.70;93.70;;;;;;5005218;28;20026;-67
2022/04/22 03:08:38;;;;;;;21.27;16.20;;;1.60;93.30;;;;;;5006975;28;20026;-67
2022/04/22 03:11:04;;;;;;;20.35;15.55;;;1.60;93.50;;;;;;5003544;28;21391;-66
2022/04/22 03:13:33;;;;;;;22.90;17.30;;;1.60;92.20;;;;;;5003503;28;20895;-66
2022/04/22 03:15:59;;;;;;;24.65;18.33;;;1.60;93.30;;;;;;5008144;28;20079;-68
2022/04/22 03:18:25;;;;;;;25.10;18.60;;;1.60;92.20;;;;;;5026469;28;20567;-68
2022/04/22 03:20:51;;;;;;;25.25;18.25;;;1.70;92.40;;;;;;5013690;28;20037;-69
2022/04/22 03:23:17;;;;;;;22.85;16.88;;;1.60;93.30;;;;;;5012911;28;20128;-68
2022/04/22 03:25:42;;;;;;;25.38;18.73;;;1.60;92.40;;;;;;5012295;28;20049;-68
2022/04/22 03:28:08;;;;;;;27.52;20.45;;;1.60;92.30;;;;;;5013254;28;20060;-69
2022/04/22 03:30:34;;;;;;;23.73;18.35;;;1.60;91.80;;;;;;5012197;28;20015;-68
2022/04/22 03:33:01;;;;;;;23.38;17.55;;;1.60;91.90;;;;;;5010533;28;20045;-68
2022/04/22 03:35:30;;;;;;;23.30;17.88;;;1.60;92.00;;;;;;5012958;28;20082;-68
2022/04/22 03:37:56;;;;;;;25.15;19.27;;;1.60;91.90;;;;;;5006815;28;20049;-68
2022/04/22 03:40:23;;;;;;;24.98;18.60;;;1.60;91.80;;;;;;5013261;28;20039;-68
2022/04/22 03:42:49;;;;;;;25.52;18.15;;;1.50;91.50;;;;;;5008330;28;20049;-68
2022/04/22 03:45:15;;;;;;;27.42;19.92;;;1.50;91.80;;;;;;5016116;28;20014;-68
2022/04/22 03:47:40;;;;;;;29.63;20.80;;;1.40;91.70;;;;;;5013658;28;20030;-68
2022/04/22 03:50:07;;;;;;;25.05;18.33;;;1.30;91.50;;;;;;5018106;28;20577;-69
2022/04/22 03:52:32;;;;;;;34.42;22.73;;;1.30;90.50;;;;;;5014623;28;20034;-68
2022/04/22 03:54:58;;;;;;;25.73;18.40;;;1.30;91.20;;;;;;5012631;28;20033;-68
2022/04/22 04:00:08;;;;;;;32.17;22.10;;;1.40;90.10;;;;;;5017881;28;20040;-68
2022/04/22 04:02:35;;;;;;;29.13;21.10;;;1.40;90.10;;;;;;5031982;28;20418;-67
2022/04/22 04:05:02;;;;;;;33.08;23.17;;;1.40;89.90;;;;;;5036800;28;20116;-67
2022/04/22 04:07:28;;;;;;;28.83;20.13;;;1.40;90.30;;;;;;5042812;28;20029;-68
2022/04/22 04:18:06;;;;;;;33.05;22.30;;;1.10;90.50;;;;;;5031563;28;20577;-69
2022/04/22 04:23:16;;;;;;;;;;;1.00;89.90;;;;;;5028312;28;20457;-69
2022/04/22 04:25:43;;;;;;;32.03;22.45;;;1.00;89.90;;;;;;5028099;28;19909;-68
2022/04/22 04:28:09;;;;;;;27.83;20.15;;;1.00;89.40;;;;;;5041088;28;20083;-68
2022/04/22 04:30:39;;;;;;;33.05;22.50;;;1.00;89.80;;;;;;5030872;28;20045;-68
2022/04/22 04:33:05;;;;;;;32.90;23.88;;;1.00;89.50;;;;;;5027019;28;20052;-68
2022/04/22 04:35:31;;;;;;;31.08;21.58;;;1.00;89.20;;;;;;5032445;28;20029;-68
2022/04/22 04:37:57;;;;;;;36.25;25.45;;;1.10;89.00;;;;;;5026707;28;20032;-68
2022/04/22 04:40:23;;;;;;;31.80;22.52;;;1.10;88.90;;;;;;5026560;28;20018;-67
2022/04/22 04:42:52;;;;;;;29.55;21.13;;;1.10;89.10;;;;;;5028353;28;20557;-67
2022/04/22 04:45:18;;;;;;;35.53;25.13;;;1.20;88.00;;;;;;5023291;28;20029;-67
2022/04/22 04:47:43;;;;;;;30.70;21.88;;;1.30;89.20;;;;;;5024109;28;20037;-67
2022/04/22 04:50:11;;;;;;;30.60;22.73;;;1.20;89.70;;;;;;5025816;28;20061;-67
2022/04/22 04:52:39;;;;;;;34.65;23.73;;;1.10;89.60;;;;;;5028896;28;20514;-68
2022/04/22 04:55:10;;;;;;;34.17;23.75;;;1.20;89.00;;;;;;5030165;28;20425;-67
2022/04/22 04:57:36;;;;;;;35.00;24.70;;;1.20;88.90;;;;;;5029595;28;20037;-67
2022/04/22 05:00:05;;;;;;;33.42;21.88;;;1.40;88.60;;;;;;5030831;28;20048;-67
2022/04/22 05:02:32;;;;;;;29.95;22.23;;;1.50;88.50;;;;;;5020163;28;20414;-68
2022/04/22 05:04:57;;;;;;;36.55;25.10;;;1.60;88.30;;;;;;5033032;28;20044;-68
2022/04/22 05:07:23;;;;;;;37.63;25.63;;;1.60;89.50;;;;;;5027765;28;20414;-67
2022/04/22 05:09:49;;;;;;;27.92;21.13;;;1.50;90.00;;;;;;5027342;28;20040;-67
2022/04/22 05:12:14;;;;;;;29.30;20.25;;;1.50;89.60;;;;;;5033680;28;20450;-67
2022/04/22 05:14:40;;;;;;;33.60;22.60;;;1.60;89.10;;;;;;5028717;28;20094;-67
2022/04/22 05:17:06;;;;;;;30.67;21.33;;;1.70;89.50;;;;;;5026084;28;20057;-67
2022/04/22 05:19:31;;;;;;;31.38;21.63;;;1.80;89.60;;;;;;5025168;28;20307;-68
2022/04/22 05:21:57;;;;;;;39.28;26.00;;;1.80;90.30;;;;;;5025079;28;20080;-66
2022/04/22 05:24:23;;;;;;;32.67;23.02;;;1.80;90.20;;;;;;5027006;28;20109;-66
2022/04/22 05:26:49;;;;;;;30.90;20.98;;;1.80;90.70;;;;;;5026020;28;20365;-67
2022/04/22 05:34:43;;;;;;;33.47;23.25;;;2.10;90.50;;;;;;5030783;28;20040;-66
2022/04/22 05:37:08;;;;;;;32.75;23.73;;;2.40;89.40;;;;;;5027956;28;20045;-67
2022/04/22 05:39:34;;;;;;;41.58;25.75;;;2.70;90.20;;;;;;5026498;28;20079;-67
2022/04/22 05:42:01;;;;;;;31.15;22.77;;;2.80;91.50;;;;;;5025093;28;20092;-66
2022/04/22 05:44:28;;;;;;;31.48;21.77;;;2.80;92.50;;;;;;5023592;28;20022;-68
2022/04/22 05:46:54;;;;;;;27.95;20.25;;;2.90;92.60;;;;;;5031776;28;20104;-68
2022/04/22 05:49:19;;;;;;;28.90;21.42;;;3.10;92.70;;;;;;5032511;28;20101;-67
2022/04/22 05:51:45;;;;;;;35.58;25.40;;;3.20;93.60;;;;;;5023615;28;20461;-67
2022/04/22 05:54:11;;;;;;;33.40;25.45;;;3.40;93.30;;;;;;5034227;28;20312;-67
2022/04/22 05:56:36;;;;;;;30.70;23.88;;;3.50;93.80;;;;;;5027185;28;20112;-67
2022/04/22 05:59:03;;;;;;;33.50;24.55;;;3.70;94.40;;;;;;5035044;28;20029;-66
2022/04/22 06:01:29;;;;;;;29.75;23.80;;;3.90;94.80;;;;;;5030410;28;20339;-67
2022/04/22 06:03:55;;;;;;;32.05;24.88;;;4.10;95.10;;;;;;5028052;28;20041;-66
2022/04/22 06:06:20;;;;;;;32.63;23.45;;;4.30;96.60;;;;;;5033006;28;20037;-65
2022/04/22 06:11:34;;;;;;;34.00;25.27;;;4.70;96.50;;;;;;5032091;28;20083;-67
2022/04/22 06:14:00;;;;;;;36.53;25.30;;;4.90;97.80;;;;;;5025271;28;20033;-67
2022/04/22 06:16:26;;;;;;;35.17;23.42;;;4.90;98.00;;;;;;5024390;28;20053;-68
2022/04/22 06:18:51;;;;;;;33.95;24.60;;;5.10;97.40;;;;;;5033749;28;20087;-67
2022/04/22 06:21:17;;;;;;;33.85;23.65;;;5.20;98.00;;;;;;5027245;28;20418;-67
2022/04/22 06:23:43;;;;;;;33.00;24.33;;;5.40;98.00;;;;;;5031700;28;20135;-68
2022/04/22 06:26:09;;;;;;;32.80;23.65;;;5.50;98.00;;;;;;5030495;28;20085;-66
2022/04/22 06:28:37;;;;;;;30.83;22.50;;;5.50;98.00;;;;;;5016911;28;20029;-67
2022/04/22 06:31:03;;;;;;;33.00;23.58;;;5.70;98.00;;;;;;5023293;28;20200;-67
2022/04/22 06:33:32;;;;;;;33.25;24.67;;;5.80;98.00;;;;;;5017329;28;20449;-67
2022/04/22 06:36:01;;;;;;;29.60;21.95;;;6.00;98.00;;;;;;5020181;28;20427;-68
2022/04/22 06:38:30;;;;;;;32.17;23.10;;;6.00;98.00;;;;;;5019589;28;20033;-67
2022/04/22 06:46:26;;;;;;;28.02;20.75;;;6.50;97.90;;;;;;5021297;28;20060;-67
2022/04/22 06:48:55;;;;;;;30.83;23.20;;;6.60;97.80;;;;;;5025544;28;20033;-67
2022/04/22 06:51:23;;;;;;;35.33;28.02;;;6.70;97.90;;;;;;5024353;28;20025;-67
2022/04/22 06:53:52;;;;;;;30.13;23.67;;;6.70;97.70;;;;;;5023332;28;20448;-67
2022/04/22 06:56:23;;;;;;;27.70;21.90;;;6.80;97.90;;;;;;5022371;28;20029;-66
2022/04/22 06:58:51;;;;;;;27.27;20.85;;;6.80;97.70;;;;;;5021168;28;20057;-68
2022/04/22 07:01:17;;;;;;;32.75;24.92;;;6.80;97.60;;;;;;5023511;28;20060;-67
2022/04/22 07:03:43;;;;;;;28.90;20.05;;;7.10;97.80;;;;;;5020266;28;20173;-67
2022/04/22 07:06:09;;;;;;;27.05;20.92;;;7.30;97.10;;;;;;5019065;28;21376;-66
2022/04/22 07:08:35;;;;;;;29.98;20.92;;;7.30;96.80;;;;;;5023947;28;20021;-67
2022/04/22 07:11:03;;;;;;;28.00;21.33;;;7.40;96.70;;;;;;5028307;28;20101;-67
2022/04/22 07:13:29;;;;;;;27.17;18.65;;;7.60;96.60;;;;;;5029787;28;20052;-67
2022/04/22 07:15:58;;;;;;;26.98;20.27;;;7.80;96.10;;;;;;5022777;28;20454;-68
2022/04/22 07:18:24;;;;;;;28.92;21.35;;;8.00;95.40;;;;;;5026259;28;20033;-67
2022/04/22 07:20:50;;;;;;;38.33;34.03;;;8.20;94.90;;;;;;5027969;28;20044;-67
2022/04/22 07:23:16;;;;;;;40.83;36.55;;;8.40;94.40;;;;;;5033151;28;20038;-67
2022/04/22 07:25:46;;;;;;;37.97;33.88;;;8.50;93.70;;;;;;5023322;28;20412;-67
2022/04/22 07:28:13;;;;;;;35.85;30.52;;;8.70;93.50;;;;;;5026167;28;20085;-67
2022/04/22 07:30:46;;;;;;;25.33;19.83;;;8.70;93.30;;;;;;5024294;28;20033;-67
2022/04/22 07:33:12;;;;;;;27.67;24.08;;;8.80;93.00;;;;;;5037498;28;20033;-67
2022/04/22 07:35:38;;;;;;;32.15;27.70;;;8.70;93.10;;;;;;5036765;28;20025;-67
2022/04/22 07:38:04;;;;;;;26.92;20.27;;;8.90;92.50;;;;;;5036915;28;20030;-67
2022/04/22 07:40:30;;;;;;;26.80;19.92;;;8.80;92.10;;;;;;5032605;28;20037;-66
2022/04/22 07:48:26;;;;;;;29.35;21.08;;;8.70;92.80;;;;;;5036916;28;20039;-68
2022/04/22 07:50:54;;;;;;;27.50;18.63;;;9.20;92.60;;;;;;5032928;28;20018;-68
2022/04/22 07:53:21;;;;;;;23.13;17.55;;;10.00;90.10;;;;;;5023663;28;20030;-68
2022/04/22 07:55:50;;;;;;;27.10;18.45;;;11.00;86.90;;;;;;5035739;28;20438;-68
2022/04/22 07:58:17;;;;;;;27.95;20.52;;;11.90;84.90;;;;;;5031331;28;20030;-67
2022/04/22 08:00:44;;;;;;;26.05;19.30;;;12.50;81.90;;;;;;5029720;28;20022;-68
2022/04/22 08:03:10;;;;;;;25.40;18.13;;;12.60;81.90;;;;;;5019323;28;20041;-67
2022/04/22 08:05:39;;;;;;;25.55;19.58;;;12.70;81.20;;;;;;5027524;28;20093;-68
2022/04/22 08:08:06;;;;;;;25.65;18.90;;;12.70;80.60;;;;;;5033022;28;20033;-67
2022/04/22 08:10:32;;;;;;;28.83;19.02;;;12.80;80.50;;;;;;5032093;28;20021;-68
2022/04/22 08:12:58;;;;;;;26.20;19.10;;;13.20;79.80;;;;;;5037824;28;20312;-68
2022/04/22 08:15:24;;;;;;;28.17;23.27;;;13.40;78.90;;;;;;5031410;28;20040;-68
2022/04/22 08:17:50;;;;;;;26.60;20.15;;;13.50;78.50;;;;;;5035212;28;20021;-68
2022/04/22 08:20:16;;;;;;;25.05;19.90;;;13.30;79.10;;;;;;5035142;28;20021;-68
2022/04/22 08:22:45;;;;;;;24.65;19.70;;;13.70;78.60;;;;;;5034175;28;20026;-66
2022/04/22 08:25:15;;;;;;;28.10;21.30;;;14.00;78.10;;;;;;5036689;28;20034;-68
2022/04/22 08:27:41;;;;;;;24.92;20.92;;;14.50;76.30;;;;;;5021090;28;20080;-68
2022/04/22 08:30:09;;;;;;;25.73;19.17;;;14.60;76.00;;;;;;5018703;28;20026;-68
2022/04/22 08:32:35;;;;;;;23.63;18.58;;;14.50;75.00;;;;;;5035809;28;20029;-67
2022/04/22 08:35:01;;;;;;;24.77;19.02;;;14.70;75.40;;;;;;5036049;28;20065;-66
2022/04/22 08:37:26;;;;;;;23.73;19.77;;;14.90;74.30;;;;;;5027653;28;20061;-67
2022/04/22 08:39:54;;;;;;;24.25;19.23;;;14.90;74.80;;;;;;5023274;28;20033;-68
2022/04/22 08:42:23;;;;;;;22.42;17.75;;;14.80;73.60;;;;;;5019902;28;20057;-68
2022/04/22 08:44:50;;;;;;;22.80;18.42;;;15.00;73.80;;;;;;5020077;28;20118;-68
2022/04/22 08:50:02;;;;;;;24.33;19.77;;;15.10;73.60;;;;;;5032158;28;20088;-67
2022/04/22 08:52:33;;;;;;;23.45;18.92;;;15.40;73.00;;;;;;5024205;28;20103;-67
2022/04/22 08:55:00;;;;;;;23.90;18.52;;;15.20;73.30;;;;;;5028575;28;20052;-66
2022/04/22 08:57:29;;;;;;;23.92;19.13;;;15.30;74.00;;;;;;5029886;28;20022;-66
2022/04/22 09:00:07;;;;;;;22.75;18.38;;;15.60;72.40;;;;;;5029339;28;20033;-66
2022/04/22 09:02:33;;;;;;;24.40;18.60;;;15.50;71.60;;;;;;5035974;28;20079;-66
2022/04/22 09:04:59;;;;;;;25.52;19.25;;;15.70;72.00;;;;;;5036063;28;20507;-68
2022/04/22 09:07:27;;;;;;;25.38;19.25;;;16.10;71.10;;;;;;5018607;28;20108;-68
2022/04/22 09:09:52;;;;;;;22.63;17.55;;;16.20;71.40;;;;;;5017614;28;20088;-68
2022/04/22 09:12:23;;;;;;;24.58;18.10;;;16.60;71.20;;;;;;5027980;28;20022;-68
2022/04/22 09:14:54;;;;;;;24.63;17.70;;;16.80;69.40;;;;;;5021045;28;20041;-68
2022/04/22 09:17:33;;;;;;;22.77;18.92;;;16.90;69.80;;;;;;5021977;28;20058;-67
2022/04/22 09:20:01;;;;;;;24.40;18.05;;;17.10;69.30;;;;;;5026769;28;20026;-67
2022/04/22 09:22:29;;;;;;;27.25;18.50;;;17.00;68.50;;;;;;5023588;28;20429;-67
2022/04/22 09:24:56;;;;;;;21.38;18.30;;;16.90;69.30;;;;;;5037074;28;20330;-67
2022/04/22 09:27:42;;;;;;;24.00;18.45;;;17.10;69.50;;;;;;5034481;28;20071;-67
2022/04/22 09:30:11;;;;;;;26.20;19.33;;;17.30;69.70;;;;;;5035642;28;20026;-68
2022/04/22 09:32:40;;;;;;;26.45;20.17;;;17.00;69.30;;;;;;5036322;28;20025;-67
2022/04/22 09:35:17;;;;;;;25.20;20.00;;;16.60;70.40;;;;;;5030042;28;20026;-67
2022/04/22 09:43:42;;;;;;;25.10;19.88;;;15.10;74.70;;;;;;5032115;28;20326;-67
2022/04/22 09:46:24;;;;;;;23.95;19.63;;;15.20;74.50;;;;;;5034478;28;20041;-67
2022/04/22 09:48:51;;;;;;;22.95;19.17;;;15.40;73.50;;;;;;5033446;28;20029;-67
2022/04/22 09:51:27;;;;;;;27.23;20.70;;;15.60;72.80;;;;;;5022902;28;20034;-67
2022/04/22 09:54:06;;;;;;;25.13;19.80;;;15.50;72.80;;;;;;5025265;28;20116;-67
2022/04/22 09:56:33;;;;;;;26.00;19.75;;;15.80;72.70;;;;;;5024965;28;20426;-67
2022/04/22 09:59:19;;;;;;;25.95;20.13;;;15.90;71.40;;;;;;5035836;28;20033;-67
2022/04/22 10:01:47;;;;;;;23.77;17.88;;;15.70;73.10;;;;;;5032521;28;20159;-66
2022/04/22 10:04:13;;;;;;;24.60;18.88;;;15.90;72.60;;;;;;5044347;28;20315;-67
2022/04/22 10:06:39;;;;;;;24.13;19.02;;;16.50;72.20;;;;;;5035435;28;20028;-67
2022/04/22 10:09:09;;;;;;;23.50;17.98;;;16.70;70.00;;;;;;5043973;28;20331;-68
2022/04/22 10:11:35;;;;;;;22.90;17.08;;;16.90;70.40;;;;;;5026784;28;20029;-67
2022/04/22 10:14:05;;;;;;;21.35;17.20;;;17.50;68.80;;;;;;5035976;28;20029;-67
2022/04/22 10:16:32;;;;;;;22.33;17.60;;;17.70;67.90;;;;;;5028989;28;20042;-67
2022/04/22 10:18:58;;;;;;;20.48;16.13;;;18.30;66.60;;;;;;5021109;28;20048;-67
2022/04/22 10:21:24;;;;;;;25.88;17.60;;;19.10;65.90;;;;;;5034285;28;20021;-67
2022/04/22 10:23:52;;;;;;;21.67;17.67;;;19.30;63.20;;;;;;5021962;28;20371;-67
2022/04/22 10:26:18;;;;;;;22.02;17.23;;;18.60;64.90;;;;;;5022643;28;20032;-67
2022/04/22 10:28:46;;;;;;;22.70;18.73;;;18.40;66.60;;;;;;5035527;28;20366;-67
2022/04/22 10:31:12;;;;;;;21.92;17.27;;;18.20;66.50;;;;;;5035843;28;20097;-67
2022/04/22 10:33:39;;;;;;;23.05;18.38;;;18.10;67.80;;;;;;5036099;28;20017;-67
2022/04/22 10:36:05;;;;;;;22.45;18.42;;;18.70;66.70;;;;;;5019440;28;20034;-67
2022/04/22 10:38:39;;;;;;;21.63;18.27;;;19.00;64.30;;;;;;5020235;28;20080;-67
2022/04/22 10:41:13;;;;;;;21.23;17.73;;;19.00;65.00;;;;;;5034284;28;20033;-67
2022/04/22 10:43:40;;;;;;;;;;;18.80;64.80;;;;;;5029320;28;20033;-67
2022/04/22 10:49:14;;;;;;;21.42;18.17;;;18.50;66.10;;;;;;5046836;28;20040;-67
2022/04/22 10:52:11;;;;;;;21.95;16.48;;;18.40;66.20;;;;;;5017668;28;20026;-67
2022/04/22 10:54:52;;;;;;;21.05;18.05;;;18.70;66.10;;;;;;5032275;28;20090;-66
2022/04/22 10:57:20;;;;;;;24.15;19.23;;;18.80;65.30;;;;;;5040293;28;20022;-67
2022/04/22 10:59:48;;;;;;;20.17;17.55;;;18.20;66.80;;;;;;5023302;28;20044;-67
2022/04/22 11:02:30;;;;;;;21.27;17.00;;;18.10;67.20;;;;;;5026880;28;20052;-67
2022/04/22 11:05:20;;;;;;;18.42;15.75;;;18.40;68.10;;;;;;5044204;28;20033;-67
2022/04/22 11:07:58;;;;;;;18.35;16.08;;;19.10;66.20;;;;;;5032875;28;20314;-67
2022/04/22 11:10:26;;;;;;;20.30;16.52;;;19.50;63.90;;;;;;5034733;28;20083;-67
2022/04/22 11:12:56;;;;;;;18.27;15.30;;;19.40;63.90;;;;;;5028455;28;20350;-67
2022/04/22 11:15:52;;;;;;;19.67;15.45;;;19.30;65.50;;;;;;5015760;28;20046;-67
2022/04/22 11:18:18;;;;;;;20.60;17.40;;;19.80;64.30;;;;;;5016145;28;20037;-67
2022/04/22 11:20:50;;;;;;;19.45;14.70;;;19.90;64.00;;;;;;5022339;28;20025;-67
2022/04/22 11:23:15;;;;;;;17.88;15.52;;;19.90;63.30;;;;;;5029156;28;20096;-66
2022/04/22 11:25:43;;;;;;;19.15;15.90;;;19.40;64.70;;;;;;5024937;28;20018;-67
2022/04/22 11:28:09;;;;;;;19.95;16.00;;;19.30;63.70;;;;;;5028921;28;20030;-67
2022/04/22 11:30:39;;;;;;;19.80;16.90;;;19.30;64.90;;;;;;5034794;28;20108;-67
2022/04/22 11:33:27;;;;;;;19.77;15.85;;;18.60;65.50;;;;;;5045873;28;20406;-67
2022/04/22 11:35:57;;;;;;;19.73;14.57;;;18.50;66.50;;;;;;5031131;28;20049;-67
2022/04/22 11:38:23;;;;;;;16.92;14.85;;;18.50;66.40;;;;;;5029030;28;20029;-67
2022/04/22 11:40:50;;;;;;;19.90;17.20;;;18.70;66.70;;;;;;5033971;28;20326;-67
2022/04/22 11:43:18;;;;;;;20.02;16.70;;;18.80;64.90;;;;;;5035327;28;20017;-67
2022/04/22 11:45:50;;;;;;;20.60;16.33;;;18.30;66.90;;;;;;5032531;28;20029;-67
2022/04/22 11:48:24;;;;;;;19.33;15.65;;;18.30;67.30;;;;;;5027463;28;20303;-66
2022/04/22 11:50:53;;;;;;;17.35;15.27;;;18.80;66.70;;;;;;5032525;28;20352;-66
2022/04/22 11:53:20;;;;;;;21.25;15.57;;;19.10;66.20;;;;;;5033986;28;20025;-65
2022/04/22 11:55:48;;;;;;;18.83;16.05;;;18.80;65.20;;;;;;5033290;28;20032;-65
2022/04/22 11:58:16;;;;;;;17.00;14.73;;;18.70;65.60;;;;;;5033726;28;20021;-65
2022/04/22 12:06:20;;;;;;;18.73;15.23;;;19.00;65.00;;;;;;5031159;28;20044;-67
2022/04/22 12:08:54;;;;;;;17.58;14.05;;;19.10;66.00;;;;;;5030435;28;20060;-67
2022/04/22 12:11:24;;;;;;;17.52;13.90;;;19.60;66.00;;;;;;5037079;28;20377;-68
2022/04/22 12:13:52;;;;;;;16.95;14.32;;;20.10;64.20;;;;;;5038587;28;20090;-67
2022/04/22 12:16:18;;;;;;;18.55;15.05;;;19.60;63.60;;;;;;5036296;28;20038;-67
2022/04/22 12:18:48;;;;;;;18.35;14.40;;;19.50;64.70;;;;;;5037606;28;20025;-67
2022/04/22 12:21:18;;;;;;;21.60;14.65;;;19.30;65.40;;;;;;5023601;28;20037;-68
2022/04/22 12:23:46;;;;;;;17.02;14.63;;;19.20;65.70;;;;;;5026479;28;20033;-67
2022/04/22 12:26:23;;;;;;;16.38;13.25;;;19.40;64.00;;;;;;5031517;28;20045;-67
2022/04/22 12:29:09;;;;;;;18.55;14.43;;;19.30;65.50;;;;;;5031120;28;20037;-68
2022/04/22 12:31:44;;;;;;;18.23;15.13;;;19.10;65.90;;;;;;5033993;28;20108;-67
2022/04/22 12:34:13;;;;;;;20.92;15.27;;;18.70;65.90;;;;;;5034431;28;20029;-67
2022/04/22 12:37:02;;;;;;;17.25;14.05;;;18.70;65.20;;;;;;5033667;28;20040;-67
2022/04/22 12:39:42;;;;;;;16.17;12.48;;;19.00;66.50;;;;;;5022219;28;20437;-68
2022/04/22 12:42:17;;;;;;;16.90;13.68;;;19.50;65.10;;;;;;5034263;28;20478;-68
2022/04/22 12:54:03;;;;;;;17.10;13.23;;;19.50;64.00;;;;;;5029473;28;20083;-68
2022/04/22 12:56:29;;;;;;;19.52;13.57;;;19.80;64.50;;;;;;5027549;28;20036;-67
2022/04/22 12:58:56;;;;;;;14.70;12.18;;;20.20;63.70;;;;;;5032833;28;20029;-68
2022/04/22 13:01:36;;;;;;;16.33;13.30;;;20.60;63.20;;;;;;5031834;28;20029;-69
2022/04/22 13:04:03;;;;;;;14.57;11.57;;;21.10;62.50;;;;;;5033399;28;20373;-69
2022/04/22 13:06:55;;;;;;;16.83;13.13;;;21.50;60.90;;;;;;5031775;28;20031;-68
2022/04/22 13:09:22;;;;;;;16.33;12.95;;;21.20;60.90;;;;;;5034225;28;20423;-69
2022/04/22 13:11:49;;;;;;;15.27;12.30;;;21.00;60.70;;;;;;5036160;28;20025;-68
2022/04/22 13:14:15;;;;;;;15.52;12.80;;;20.20;61.60;;;;;;5031247;28;20105;-68
2022/04/22 13:16:42;;;;;;;15.73;12.73;;;20.10;63.10;;;;;;5025158;28;20145;-68
2022/04/22 13:19:08;;;;;;;19.90;13.45;;;20.20;62.50;;;;;;5037312;28;20303;-68
2022/04/22 13:21:34;;;;;;;14.52;11.45;;;20.60;60.90;;;;;;5026484;28;20022;-69
2022/04/22 13:24:02;;;;;;;15.55;13.27;;;21.10;60.00;;;;;;5018964;28;20048;-68
2022/04/22 13:26:28;;;;;;;12.13;10.82;;;20.20;61.10;;;;;;5030146;28;20020;-69
2022/04/22 13:28:55;;;;;;;18.77;14.52;;;20.30;62.00;;;;;;5034710;28;20325;-68
2022/04/22 13:31:22;;;;;;;16.27;13.25;;;21.10;61.10;;;;;;5033367;28;20414;-68
2022/04/22 13:33:48;;;;;;;16.00;13.05;;;21.30;60.00;;;;;;5020354;28;20049;-68
2022/04/22 13:36:15;;;;;;;13.93;11.68;;;21.40;60.50;;;;;;5032401;28;20449;-68
2022/04/22 13:38:44;;;;;;;14.40;11.63;;;21.90;60.20;;;;;;5021468;28;20362;-68
2022/04/22 13:41:10;;;;;;;14.43;12.70;;;22.10;58.20;;;;;;5031773;28;20025;-67
2022/04/22 13:43:36;;;;;;;14.60;11.00;;;21.70;58.00;;;;;;5029982;28;20045;-67
2022/04/22 13:54:25;;;;;;;15.07;12.27;;;20.90;61.10;;;;;;5026480;28;20044;-67
2022/04/22 13:56:51;;;;;;;15.60;13.30;;;20.60;62.00;;;;;;5025756;28;20112;-68